Terminal Aerodrome Forecast
Issued by NWS

Home | Current Version | Previous Version | Text Only | Print | Product List | Glossary On
Versions: 1 2 3 4 5 6 7 8 9 10 11 12 13 14 15 16 17 18 19 20
392
FTUS41 KCAR 051134
TAFHUL
TAF
KHUL 051134Z 0512/0612 VRB03KT P6SM SCT150
     FM052100 VRB03KT P6SM OVC025
     FM060100 VRB03KT P6SM VCSH OVC015
     FM060500 VRB03KT P6SM BKN030
     FM060700 33004KT P6SM BKN050=

USA.gov is the U.S. government's official web portal to all federal, state and local government web resources and services.